Time;durP1;ratioP1;P1;durP2;ratioP2;P2;SDS_P1;SDS_P2;PMS_P1;PMS_P2;Temp;Humidity;BMP_temperature;BMP_pressure;BME280_temperature;BME280_humidity;BME280_pressure;Samples;Min_cycle;Max_cycle;Signal;HPM_P1;HPM_P2
2023/10/09 00:03:03;;;;;;;13.27;6.15;;;14.60;99.90;;;;;;4993260;28;20522;-65
2023/10/09 00:08:19;;;;;;;12.48;6.22;;;14.70;99.90;;;;;;5002371;28;20054;-65
2023/10/09 00:10:52;;;;;;;10.40;6.07;;;14.60;99.90;;;;;;5007339;28;20038;-65
2023/10/09 00:13:30;;;;;;;12.98;6.03;;;14.60;99.90;;;;;;4999965;28;20053;-66
2023/10/09 00:16:14;;;;;;;13.00;6.03;;;14.60;99.90;;;;;;5004575;28;20042;-63
2023/10/09 00:18:46;;;;;;;13.50;6.85;;;14.50;99.90;;;;;;5010053;28;20053;-65
2023/10/09 00:21:20;;;;;;;16.13;6.43;;;14.50;99.90;;;;;;5009427;28;20045;-63
2023/10/09 00:23:53;;;;;;;12.43;6.97;;;14.50;99.90;;;;;;5008480;28;20045;-66
2023/10/09 01:11:23;;;;;;;10.95;6.85;;;14.00;99.90;;;;;;4973257;28;20057;-65
2023/10/09 01:16:23;;;;;;;12.40;6.70;;;14.00;99.90;;;;;;4998618;28;20049;-66
2023/10/09 01:18:58;;;;;;;12.52;6.57;;;14.00;99.90;;;;;;5009486;28;20078;-66
2023/10/09 01:21:26;;;;;;;12.65;6.65;;;14.00;99.90;;;;;;5007750;28;20038;-64
2023/10/09 01:24:08;;;;;;;10.40;5.88;;;13.90;99.90;;;;;;5000728;28;20046;-65
2023/10/09 01:26:39;;;;;;;14.35;6.70;;;13.90;99.90;;;;;;5007414;28;20061;-65
2023/10/09 01:29:14;;;;;;;16.30;7.00;;;13.90;99.90;;;;;;5000884;28;20077;-65
2023/10/09 01:31:56;;;;;;;12.32;6.68;;;13.90;99.90;;;;;;4991038;28;20498;-65
2023/10/09 01:34:45;;;;;;;10.65;5.72;;;13.90;99.90;;;;;;4992383;28;20049;-65
2023/10/09 01:37:36;;;;;;;14.77;6.82;;;13.90;99.90;;;;;;5006906;28;20069;-65
2023/10/09 01:40:27;;;;;;;11.80;6.40;;;13.90;99.90;;;;;;4993239;28;20491;-65
2023/10/09 01:42:56;;;;;;;12.30;6.22;;;13.80;99.90;;;;;;4998333;28;20050;-65
2023/10/09 01:47:53;;;;;;;11.27;6.63;;;13.80;99.90;;;;;;5006511;28;20057;-64
2023/10/09 01:50:24;;;;;;;14.60;5.85;;;13.70;99.90;;;;;;4992682;28;20046;-61
2023/10/09 01:52:52;;;;;;;13.90;6.38;;;13.70;99.90;;;;;;5004369;28;20054;-62
2023/10/09 01:55:45;;;;;;;13.40;6.22;;;13.70;99.90;;;;;;4992877;28;20061;-61
2023/10/09 02:00:55;;;;;;;13.55;7.00;;;13.60;99.90;;;;;;5009198;28;20072;-61
2023/10/09 02:03:24;;;;;;;11.30;6.35;;;13.70;99.90;;;;;;4996802;28;20046;-63
2023/10/09 02:05:53;;;;;;;14.67;6.50;;;13.60;99.90;;;;;;5010296;28;20046;-62
2023/10/09 02:08:26;;;;;;;11.00;6.65;;;13.60;99.90;;;;;;5011668;28;20306;-61
2023/10/09 02:10:56;;;;;;;13.27;6.32;;;13.60;99.90;;;;;;5006292;28;20441;-60
2023/10/09 02:13:31;;;;;;;14.33;7.20;;;13.60;99.90;;;;;;4994999;28;20065;-62
2023/10/09 02:16:12;;;;;;;15.55;7.15;;;13.60;99.90;;;;;;5002263;28;20462;-60
2023/10/09 02:18:56;;;;;;;13.43;6.38;;;13.60;99.90;;;;;;5012414;28;20133;-60
2023/10/09 02:21:33;;;;;;;15.88;6.72;;;13.50;99.90;;;;;;5000584;28;20082;-61
2023/10/09 02:24:12;;;;;;;12.65;6.85;;;13.50;99.90;;;;;;4992022;28;20049;-63
2023/10/09 02:31:46;;;;;;;14.77;7.47;;;13.50;99.90;;;;;;5003009;28;20058;-62
2023/10/09 02:34:17;;;;;;;15.85;7.60;;;13.50;99.90;;;;;;5009516;28;20050;-61
2023/10/09 02:36:57;;;;;;;12.60;7.00;;;13.50;99.90;;;;;;5010152;28;20049;-64
2023/10/09 02:39:28;;;;;;;14.95;6.75;;;13.50;99.90;;;;;;5011729;28;20042;-63
2023/10/09 02:42:07;;;;;;;11.95;6.68;;;13.50;99.90;;;;;;5002403;28;20564;-63
2023/10/09 02:44:40;;;;;;;17.23;6.90;;;13.50;99.90;;;;;;4992257;28;20046;-63
2023/10/09 02:47:17;;;;;;;15.32;7.88;;;13.50;99.90;;;;;;5005090;28;20486;-65
2023/10/09 02:49:48;;;;;;;13.43;6.05;;;13.50;99.90;;;;;;5006744;28;20042;-62
2023/10/09 02:52:18;;;;;;;13.80;6.78;;;13.50;99.90;;;;;;4998919;28;20053;-64
2023/10/09 02:54:47;;;;;;;14.32;6.88;;;13.50;99.90;;;;;;5010406;28;20049;-60
2023/10/09 02:57:23;;;;;;;13.70;7.38;;;13.40;99.90;;;;;;5010333;28;20050;-64
2023/10/09 02:59:52;;;;;;;17.17;7.55;;;13.40;99.90;;;;;;5011714;28;20053;-63
2023/10/09 03:02:20;;;;;;;17.95;7.35;;;13.40;99.90;;;;;;5011447;28;20391;-64
2023/10/09 03:04:48;;;;;;;20.52;7.22;;;13.40;99.90;;;;;;4995285;28;20053;-64
2023/10/09 03:07:15;;;;;;;13.40;6.60;;;13.40;99.90;;;;;;5002282;28;20050;-64
2023/10/09 03:09:43;;;;;;;11.82;6.95;;;13.40;99.90;;;;;;5007267;28;20065;-65
2023/10/09 03:12:12;;;;;;;14.52;6.85;;;13.40;99.90;;;;;;5010285;28;20072;-63
2023/10/09 03:14:41;;;;;;;12.52;7.10;;;13.40;99.90;;;;;;5010577;28;20057;-62
2023/10/09 03:17:11;;;;;;;13.45;7.05;;;13.40;99.90;;;;;;5011034;28;20046;-61
2023/10/09 03:19:40;;;;;;;14.75;6.15;;;13.40;99.90;;;;;;5012969;28;20045;-64
2023/10/09 03:22:11;;;;;;;13.52;6.60;;;13.50;99.90;;;;;;5014355;28;20042;-64
2023/10/09 03:24:44;;;;;;;12.93;6.53;;;13.40;99.90;;;;;;5014436;28;20042;-64
2023/10/09 03:27:18;;;;;;;14.65;6.50;;;13.40;99.90;;;;;;5015435;28;20044;-63
2023/10/09 03:29:49;;;;;;;14.07;6.45;;;13.40;99.90;;;;;;5015306;28;20053;-63
2023/10/09 03:32:19;;;;;;;15.38;7.28;;;13.40;99.90;;;;;;5012352;28;20474;-64
2023/10/09 03:34:51;;;;;;;12.45;7.50;;;13.40;99.90;;;;;;5014172;28;20046;-65
2023/10/09 03:37:24;;;;;;;17.67;7.65;;;13.40;99.90;;;;;;5013883;28;20046;-65
2023/10/09 03:39:54;;;;;;;14.43;7.10;;;13.30;99.90;;;;;;5011560;28;20508;-65
2023/10/09 03:42:24;;;;;;;22.00;6.78;;;13.30;99.90;;;;;;4994213;28;20046;-66
2023/10/09 03:44:53;;;;;;;12.70;7.55;;;13.30;99.90;;;;;;5005518;28;20413;-65
2023/10/09 03:47:22;;;;;;;17.45;8.85;;;13.30;99.90;;;;;;5013336;28;20046;-65
2023/10/09 03:49:53;;;;;;;16.88;8.43;;;13.30;99.90;;;;;;5010304;28;20053;-65
2023/10/09 03:52:25;;;;;;;13.48;7.22;;;13.30;99.90;;;;;;5014388;28;20057;-65
2023/10/09 03:54:54;;;;;;;14.05;6.80;;;13.30;99.90;;;;;;5012616;28;20054;-65
2023/10/09 03:57:24;;;;;;;15.30;7.68;;;13.30;99.90;;;;;;5014626;28;20050;-65
2023/10/09 03:59:52;;;;;;;10.93;6.43;;;13.30;99.90;;;;;;5014817;28;20050;-65
2023/10/09 04:02:22;;;;;;;18.30;7.40;;;13.30;99.90;;;;;;5014626;28;20046;-65
2023/10/09 04:04:51;;;;;;;17.02;7.53;;;13.30;99.90;;;;;;5013814;28;20054;-64
2023/10/09 04:07:21;;;;;;;14.45;7.00;;;13.30;99.90;;;;;;5014419;28;20474;-64
2023/10/09 04:10:01;;;;;;;14.90;7.20;;;13.30;99.90;;;;;;5013411;28;20053;-65
2023/10/09 04:12:30;;;;;;;11.50;6.50;;;13.30;99.90;;;;;;5014718;28;20065;-64
2023/10/09 04:15:04;;;;;;;13.02;7.20;;;13.30;99.90;;;;;;5014092;28;20038;-65
2023/10/09 04:17:33;;;;;;;13.27;7.80;;;13.30;99.90;;;;;;5014288;28;20042;-65
2023/10/09 04:22:50;;;;;;;18.13;8.05;;;13.40;99.90;;;;;;4994677;28;20397;-61
2023/10/09 04:25:25;;;;;;;12.95;7.13;;;13.40;99.90;;;;;;5001577;28;20046;-64
2023/10/09 04:28:33;;;;;;;13.48;7.05;;;13.40;99.90;;;;;;5006944;28;20046;-61
2023/10/09 04:30:55;;;;;;;15.98;7.70;;;13.40;99.90;;;;;;5002445;28;20048;-61
2023/10/09 04:33:40;;;;;;;14.25;7.60;;;13.40;99.90;;;;;;5012090;28;20053;-61
2023/10/09 04:36:21;;;;;;;17.05;8.05;;;13.40;99.90;;;;;;5014062;28;20076;-61
2023/10/09 04:41:51;;;;;;;15.63;7.60;;;13.40;99.90;;;;;;5013951;28;20046;-62
2023/10/09 04:44:19;;;;;;;15.48;8.23;;;13.40;99.90;;;;;;5014062;28;20053;-65
2023/10/09 05:00:35;;;;;;;15.68;8.77;;;13.40;99.90;;;;;;5002920;28;20532;-65
2023/10/09 05:03:24;;;;;;;15.82;8.80;;;13.40;99.90;;;;;;4987064;28;20046;-66
2023/10/09 05:05:58;;;;;;;14.57;8.15;;;13.40;99.90;;;;;;5001798;28;20050;-63
2023/10/09 05:16:18;;;;;;;16.20;8.88;;;13.40;99.90;;;;;;4972713;28;20050;-64
2023/10/09 05:18:57;;;;;;;18.33;8.32;;;13.40;99.90;;;;;;4996875;28;20050;-66
2023/10/09 05:32:15;;;;;;;20.90;9.10;;;13.40;99.90;;;;;;4997062;28;20042;-66
2023/10/09 05:35:15;;;;;;;17.15;9.20;;;13.40;99.90;;;;;;4990515;28;20422;-66
2023/10/09 05:37:43;;;;;;;17.83;8.85;;;13.40;99.90;;;;;;4996401;28;20049;-64
2023/10/09 05:42:57;;;;;;;19.73;8.65;;;13.40;99.90;;;;;;4987383;28;20057;-65
2023/10/09 05:46:07;;;;;;;16.05;8.40;;;13.40;99.90;;;;;;4986405;28;20573;-63
2023/10/09 06:04:53;;;;;;;17.17;9.15;;;13.50;99.90;;;;;;4999980;28;20050;-67
2023/10/09 06:07:24;;;;;;;20.15;9.50;;;13.50;99.90;;;;;;5000601;28;20065;-65
2023/10/09 06:09:52;;;;;;;20.58;8.82;;;13.50;99.90;;;;;;4993109;28;20050;-62
2023/10/09 06:12:33;;;;;;;19.17;9.77;;;13.40;99.90;;;;;;4998401;28;20034;-65
2023/10/09 06:15:19;;;;;;;19.15;9.48;;;13.50;99.90;;;;;;4999770;28;20076;-65
2023/10/09 06:17:50;;;;;;;19.23;8.95;;;13.40;99.90;;;;;;4994121;28;20512;-66
2023/10/09 06:23:17;;;;;;;17.98;9.70;;;13.40;99.90;;;;;;5007640;28;20049;-65
2023/10/09 06:25:51;;;;;;;18.42;9.02;;;13.40;99.90;;;;;;4991465;28;20058;-65
2023/10/09 06:28:32;;;;;;;24.73;10.48;;;13.40;99.90;;;;;;5005063;28;20033;-64
2023/10/09 06:31:38;;;;;;;18.27;8.82;;;13.40;99.90;;;;;;4991693;28;20544;-64
2023/10/09 06:34:16;;;;;;;18.42;9.75;;;13.50;99.90;;;;;;4995280;28;20042;-63
2023/10/09 06:36:52;;;;;;;18.85;9.73;;;13.50;99.90;;;;;;4994670;28;20057;-63
2023/10/09 06:42:30;;;;;;;17.88;8.65;;;13.50;99.90;;;;;;5007724;28;19928;-65
2023/10/09 06:45:05;;;;;;;22.30;9.77;;;13.60;99.90;;;;;;5008518;28;20050;-66
2023/10/09 06:47:41;;;;;;;18.33;9.38;;;13.60;99.90;;;;;;5008079;28;20046;-66
2023/10/09 06:58:41;;;;;;;23.02;9.65;;;13.80;99.90;;;;;;5006567;28;20508;-64
2023/10/09 07:01:39;;;;;;;26.30;10.60;;;13.90;99.90;;;;;;4992831;28;20048;-63
2023/10/09 07:07:20;;;;;;;20.02;10.35;;;13.90;99.90;;;;;;4934137;28;20062;-63
2023/10/09 07:10:39;;;;;;;19.92;9.63;;;13.90;99.90;;;;;;4957725;28;20498;-61
2023/10/09 07:12:42;;;;;;;27.67;11.40;;;14.00;99.90;;;;;;4968379;28;20050;-63
2023/10/09 07:23:32;;;;;;;20.23;10.82;;;14.00;99.90;;;;;;5002149;28;20057;-61
2023/10/09 07:25:42;;;;;;;27.95;10.35;;;14.00;99.90;;;;;;4996860;28;20769;-62
2023/10/09 07:28:18;;;;;;;27.52;10.18;;;14.10;99.90;;;;;;5004579;28;20509;-65
2023/10/09 07:30:46;;;;;;;19.67;10.43;;;14.10;99.90;;;;;;5000226;28;20058;-64
2023/10/09 07:35:47;;;;;;;25.75;10.48;;;14.10;99.90;;;;;;4998478;28;20057;-65
2023/10/09 07:38:19;;;;;;;17.98;9.95;;;14.20;99.90;;;;;;5001872;28;20057;-62
2023/10/09 07:43:39;;;;;;;31.77;11.55;;;14.30;99.90;;;;;;5004438;28;20513;-66
2023/10/09 07:48:57;;;;;;;28.45;11.40;;;14.30;99.90;;;;;;5004185;28;20069;-60
2023/10/09 07:51:31;;;;;;;22.30;10.10;;;14.30;99.90;;;;;;5004924;28;20053;-60
2023/10/09 07:54:09;;;;;;;23.00;10.20;;;14.40;99.90;;;;;;5005353;28;20053;-64
2023/10/09 07:56:39;;;;;;;24.85;10.82;;;14.40;99.90;;;;;;5006759;28;20058;-64
2023/10/09 07:59:11;;;;;;;22.70;10.45;;;14.50;99.90;;;;;;5003245;28;20049;-64
2023/10/09 08:01:54;;;;;;;28.83;10.98;;;14.50;99.90;;;;;;4987358;28;20074;-64
2023/10/09 08:04:48;;;;;;;29.85;10.73;;;14.50;99.90;;;;;;5003194;28;20049;-63
2023/10/09 08:07:19;;;;;;;32.72;11.07;;;14.60;99.90;;;;;;5007464;28;20691;-64
2023/10/09 08:18:03;;;;;;;22.75;9.65;;;14.90;99.90;;;;;;4995717;28;20065;-64
2023/10/09 08:23:33;;;;;;;26.98;10.95;;;15.10;99.90;;;;;;5006939;28;20045;-64
2023/10/09 08:26:14;;;;;;;20.63;10.88;;;15.20;99.90;;;;;;5002570;28;20048;-64
2023/10/09 08:28:45;;;;;;;18.90;10.18;;;15.30;99.90;;;;;;5002982;28;20053;-63
2023/10/09 08:31:45;;;;;;;19.13;9.60;;;15.30;99.90;;;;;;5007187;28;20054;-63
2023/10/09 08:34:24;;;;;;;20.42;10.68;;;15.40;99.90;;;;;;4993792;28;20046;-65
2023/10/09 08:36:55;;;;;;;24.20;10.35;;;15.40;99.90;;;;;;5001550;28;20505;-66
2023/10/09 08:39:26;;;;;;;21.48;10.63;;;15.50;99.90;;;;;;4999056;28;20529;-64
2023/10/09 08:41:57;;;;;;;20.63;9.45;;;15.50;99.90;;;;;;5005702;28;20054;-65
2023/10/09 08:44:31;;;;;;;23.40;10.98;;;15.60;99.90;;;;;;4989414;28;20058;-63
2023/10/09 08:47:01;;;;;;;26.30;12.68;;;15.70;99.90;;;;;;4998942;28;20482;-65
2023/10/09 08:49:33;;;;;;;28.48;14.10;;;15.70;99.90;;;;;;5006774;28;20042;-65
2023/10/09 08:52:04;;;;;;;25.02;13.65;;;15.80;99.90;;;;;;4998407;28;20433;-65
2023/10/09 08:54:33;;;;;;;29.40;14.35;;;15.80;99.90;;;;;;5002858;28;20038;-65
2023/10/09 08:57:01;;;;;;;24.27;13.10;;;15.90;99.90;;;;;;5005337;28;20045;-66
2023/10/09 08:59:30;;;;;;;26.08;11.90;;;16.00;99.90;;;;;;5009613;28;20299;-64
2023/10/09 09:01:59;;;;;;;26.90;11.25;;;16.00;99.90;;;;;;4994780;28;20046;-65
2023/10/09 09:04:38;;;;;;;18.17;9.70;;;16.10;99.90;;;;;;5006271;28;20046;-64
2023/10/09 09:07:25;;;;;;;20.48;9.77;;;16.20;99.90;;;;;;5008036;28;20543;-65
2023/10/09 09:10:21;;;;;;;24.27;10.00;;;16.30;99.90;;;;;;4990116;28;20058;-67
2023/10/09 09:13:00;;;;;;;20.63;10.35;;;16.30;99.90;;;;;;4992300;28;20038;-65
2023/10/09 09:15:28;;;;;;;18.42;9.70;;;16.40;99.90;;;;;;4991804;28;20401;-66
2023/10/09 09:18:10;;;;;;;25.60;10.55;;;16.50;99.90;;;;;;5008542;28;20477;-67
2023/10/09 09:20:45;;;;;;;20.15;10.07;;;16.50;99.90;;;;;;5003057;28;20046;-64
2023/10/09 09:23:13;;;;;;;24.35;10.23;;;16.60;99.90;;;;;;4996360;28;20498;-66
2023/10/09 09:25:58;;;;;;;22.35;10.63;;;16.70;99.90;;;;;;5009267;28;20057;-66
2023/10/09 09:28:32;;;;;;;22.13;10.10;;;16.80;99.90;;;;;;5008539;28;20042;-66
2023/10/09 09:31:14;;;;;;;29.58;10.73;;;16.80;99.90;;;;;;4993922;28;20053;-67
2023/10/09 09:33:43;;;;;;;16.58;9.93;;;16.90;99.90;;;;;;4997967;28;20401;-65
2023/10/09 09:36:11;;;;;;;18.10;9.90;;;17.10;99.90;;;;;;5000311;28;20049;-64
2023/10/09 09:38:47;;;;;;;22.55;9.90;;;17.30;99.90;;;;;;4997622;28;20049;-68
2023/10/09 09:41:25;;;;;;;20.13;9.98;;;17.50;99.90;;;;;;5003078;28;20058;-67
2023/10/09 09:44:01;;;;;;;21.17;9.90;;;17.60;99.90;;;;;;5003044;28;20073;-65
2023/10/09 09:46:34;;;;;;;23.90;9.88;;;17.70;99.90;;;;;;4991350;28;20054;-63
2023/10/09 09:49:16;;;;;;;28.15;9.73;;;17.90;99.90;;;;;;4996775;28;20053;-64
2023/10/09 09:51:46;;;;;;;21.05;9.07;;;18.00;99.90;;;;;;4993672;28;20054;-62
2023/10/09 09:54:15;;;;;;;21.50;8.13;;;18.30;99.90;;;;;;4987841;28;20050;-63
2023/10/09 09:56:52;;;;;;;20.23;8.05;;;18.50;99.90;;;;;;4992900;28;20050;-64
2023/10/09 09:59:29;;;;;;;26.45;8.70;;;18.80;99.90;;;;;;4991643;28;20042;-64
2023/10/09 10:02:06;;;;;;;19.77;8.55;;;19.00;99.90;;;;;;5001763;28;20042;-63
2023/10/09 10:04:38;;;;;;;17.27;7.97;;;19.10;99.90;;;;;;4992235;28;20054;-63
2023/10/09 10:07:12;;;;;;;23.83;8.45;;;19.30;99.90;;;;;;4991104;28;20437;-64
2023/10/09 10:09:44;;;;;;;17.80;7.30;;;19.40;99.90;;;;;;5005847;28;20050;-63
2023/10/09 10:12:14;;;;;;;21.75;7.15;;;19.50;99.90;;;;;;5006879;28;20108;-64
2023/10/09 10:15:16;;;;;;;22.10;7.03;;;19.60;99.90;;;;;;4994911;28;20061;-64
2023/10/09 10:17:59;;;;;;;19.38;7.57;;;19.70;99.90;;;;;;5005184;28;20038;-64
2023/10/09 10:20:31;;;;;;;28.83;8.05;;;19.80;99.90;;;;;;4987188;28;20046;-65
2023/10/09 10:23:32;;;;;;;21.67;6.90;;;19.80;99.90;;;;;;4997541;28;20046;-64
2023/10/09 10:26:26;;;;;;;15.20;6.75;;;19.90;99.90;;;;;;4993049;28;20049;-64
2023/10/09 10:29:33;;;;;;;15.70;6.25;;;20.00;99.90;;;;;;4985800;28;20042;-64
2023/10/09 10:32:12;;;;;;;12.57;5.57;;;20.10;99.90;;;;;;4999268;28;20046;-65
2023/10/09 10:34:55;;;;;;;20.33;6.60;;;20.20;99.90;;;;;;5004534;28;20055;-64
2023/10/09 10:37:43;;;;;;;17.00;7.18;;;20.10;99.90;;;;;;4998621;28;20053;-65
2023/10/09 10:40:37;;;;;;;18.05;7.57;;;20.10;99.90;;;;;;4990523;28;20064;-64
2023/10/09 10:43:31;;;;;;;13.38;6.90;;;20.00;99.90;;;;;;4990972;28;20042;-64
2023/10/09 10:46:15;;;;;;;23.10;7.47;;;19.90;99.90;;;;;;4992792;28;20049;-65
2023/10/09 10:48:49;;;;;;;19.95;7.38;;;19.80;99.90;;;;;;4991546;28;20053;-63
2023/10/09 10:51:21;;;;;;;21.58;7.53;;;19.70;99.90;;;;;;4989399;28;20057;-64
2023/10/09 10:53:57;;;;;;;24.15;7.93;;;19.70;99.90;;;;;;5005325;28;20050;-62
2023/10/09 10:56:35;;;;;;;23.50;7.90;;;19.80;99.90;;;;;;5007643;28;20046;-64
2023/10/09 11:04:27;;;;;;;23.65;6.90;;;20.00;99.90;;;;;;5001639;28;20639;-65
2023/10/09 11:18:07;;;;;;;24.17;7.15;;;19.90;99.90;;;;;;4991403;28;20053;-62
2023/10/09 11:20:36;;;;;;;24.65;6.35;;;19.90;99.90;;;;;;4997293;28;20058;-64
2023/10/09 11:25:52;;;;;;;20.27;8.20;;;20.00;99.90;;;;;;4991651;28;20701;-65
2023/10/09 11:28:29;;;;;;;20.45;7.30;;;20.10;99.90;;;;;;4998768;28;20063;-64
2023/10/09 11:31:16;;;;;;;16.92;8.13;;;20.20;99.90;;;;;;4989046;28;20077;-64
2023/10/09 11:33:52;;;;;;;19.75;8.43;;;20.30;99.90;;;;;;4991800;28;20748;-63
2023/10/09 11:36:31;;;;;;;24.10;8.20;;;20.40;99.90;;;;;;4992028;28;20046;-63
2023/10/09 11:39:14;;;;;;;32.93;8.33;;;20.30;99.90;;;;;;5006419;28;20433;-63
2023/10/09 11:41:42;;;;;;;30.65;9.32;;;20.40;99.90;;;;;;5005463;28;20041;-63
2023/10/09 11:44:18;;;;;;;25.42;9.90;;;20.40;99.90;;;;;;5008198;28;20052;-62
2023/10/09 11:50:02;;;;;;;16.70;7.43;;;20.40;99.90;;;;;;5011423;28;20061;-63
2023/10/09 11:52:37;;;;;;;23.00;7.35;;;20.40;99.90;;;;;;4998348;28;20052;-63
2023/10/09 11:55:16;;;;;;;15.55;6.97;;;20.50;99.90;;;;;;5011158;28;20061;-64
2023/10/09 11:57:44;;;;;;;19.25;7.13;;;20.50;99.90;;;;;;5009744;28;20042;-64
2023/10/09 12:00:30;;;;;;;22.23;7.00;;;20.50;99.90;;;;;;5001729;28;20050;-65
2023/10/09 12:03:05;;;;;;;21.50;7.55;;;20.50;99.90;;;;;;4995145;28;20046;-64
2023/10/09 12:05:33;;;;;;;20.73;7.78;;;20.40;99.90;;;;;;4989586;28;20061;-64
2023/10/09 12:08:03;;;;;;;15.80;6.60;;;20.40;99.90;;;;;;5009207;28;20052;-64
2023/10/09 12:10:33;;;;;;;15.43;6.97;;;20.50;99.90;;;;;;4990256;28;20058;-65
2023/10/09 12:13:04;;;;;;;18.65;7.47;;;20.50;99.90;;;;;;4994314;28;20427;-64
2023/10/09 12:15:38;;;;;;;20.33;7.18;;;20.50;99.90;;;;;;4994951;28;20046;-62
2023/10/09 12:18:14;;;;;;;17.48;6.82;;;20.60;99.90;;;;;;5010994;28;20037;-63
2023/10/09 12:20:50;;;;;;;20.75;7.95;;;20.70;99.90;;;;;;5007752;28;20046;-63
2023/10/09 12:23:20;;;;;;;13.68;6.32;;;20.90;99.90;;;;;;4996844;28;20065;-63
2023/10/09 12:25:49;;;;;;;13.70;6.15;;;21.00;99.90;;;;;;5009033;28;20042;-63
2023/10/09 12:28:20;;;;;;;12.77;5.32;;;21.20;99.90;;;;;;4996395;28;20490;-64
2023/10/09 12:30:51;;;;;;;19.15;5.05;;;21.50;99.90;;;;;;5010014;28;20046;-65
2023/10/09 12:33:27;;;;;;;15.25;5.10;;;22.10;99.90;;;;;;5007919;28;20482;-65
2023/10/09 12:35:59;;;;;;;17.83;5.85;;;22.70;99.90;;;;;;4994923;28;20046;-64
2023/10/09 12:38:32;;;;;;;15.27;6.40;;;23.20;99.90;;;;;;5007669;28;20057;-65
2023/10/09 12:41:25;;;;;;;15.75;6.35;;;23.60;99.90;;;;;;5008005;28;20517;-65
2023/10/09 12:43:54;;;;;;;15.57;5.68;;;23.90;99.90;;;;;;5005693;28;20038;-65
2023/10/09 12:46:23;;;;;;;13.88;5.95;;;24.40;99.90;;;;;;5009514;28;20065;-66
2023/10/09 12:48:54;;;;;;;18.85;4.63;;;25.00;99.90;;;;;;4993634;28;20062;-65
2023/10/09 12:51:29;;;;;;;16.25;5.68;;;25.50;99.90;;;;;;5003844;28;20053;-65
2023/10/09 12:53:58;;;;;;;9.10;4.10;;;26.00;99.90;;;;;;5004562;28;20413;-66
2023/10/09 12:56:32;;;;;;;12.13;4.40;;;26.20;99.90;;;;;;4997710;28;20071;-65
2023/10/09 12:59:01;;;;;;;9.90;4.15;;;26.30;99.90;;;;;;4996311;28;20054;-65
2023/10/09 13:01:31;;;;;;;8.35;4.28;;;26.30;99.90;;;;;;4989596;28;20046;-63
2023/10/09 13:04:00;;;;;;;17.35;4.78;;;26.20;99.90;;;;;;5001096;28;20088;-66
2023/10/09 13:06:28;;;;;;;14.15;5.00;;;26.10;99.90;;;;;;5008575;28;20645;-65
2023/10/09 13:08:59;;;;;;;12.93;5.30;;;26.10;99.90;;;;;;5005694;28;20046;-65
2023/10/09 13:11:28;;;;;;;17.05;5.97;;;26.10;99.90;;;;;;5004623;28;20049;-64
2023/10/09 13:13:59;;;;;;;16.40;5.70;;;26.00;99.90;;;;;;5009151;28;20045;-65
2023/10/09 13:16:27;;;;;;;15.73;6.07;;;26.00;99.90;;;;;;5009396;28;20061;-66
2023/10/09 13:18:59;;;;;;;15.05;5.72;;;25.90;99.90;;;;;;5008355;28;20405;-64
2023/10/09 13:21:33;;;;;;;14.63;6.07;;;25.90;99.90;;;;;;4989673;28;20057;-63
2023/10/09 13:24:02;;;;;;;14.20;5.03;;;25.80;99.90;;;;;;5005765;28;20053;-63
2023/10/09 13:26:30;;;;;;;11.85;4.63;;;25.70;99.90;;;;;;5008115;28;20041;-65
2023/10/09 13:29:02;;;;;;;10.77;4.57;;;25.70;99.90;;;;;;5004262;28;20057;-65
2023/10/09 13:31:34;;;;;;;11.10;4.35;;;25.80;99.90;;;;;;5006491;28;20042;-65
2023/10/09 13:34:06;;;;;;;11.35;4.38;;;26.10;99.90;;;;;;5002345;28;20402;-62
2023/10/09 13:36:37;;;;;;;10.05;3.83;;;26.40;99.90;;;;;;5003876;28;20569;-64
2023/10/09 13:39:24;;;;;;;14.30;5.20;;;26.70;99.90;;;;;;5007487;28;20067;-63
2023/10/09 13:42:01;;;;;;;12.27;5.13;;;27.00;99.90;;;;;;5004204;28;20061;-65
2023/10/09 13:44:30;;;;;;;18.48;4.85;;;27.30;99.90;;;;;;5006970;28;20548;-65
2023/10/09 13:47:05;;;;;;;16.88;5.07;;;27.60;99.90;;;;;;5007889;28;20470;-64
2023/10/09 13:49:34;;;;;;;16.73;5.72;;;27.80;99.90;;;;;;5007614;28;20065;-64
2023/10/09 13:52:02;;;;;;;14.60;6.03;;;27.80;99.90;;;;;;4992692;28;20034;-63
2023/10/09 13:57:04;;;;;;;11.80;5.88;;;27.40;99.90;;;;;;5003158;28;20053;-65
2023/10/09 13:59:42;;;;;;;17.33;6.85;;;26.90;99.90;;;;;;4995453;28;20045;-64
2023/10/09 14:02:16;;;;;;;11.93;5.50;;;26.40;99.90;;;;;;4989751;28;20046;-63
2023/10/09 14:04:48;;;;;;;15.23;6.25;;;25.90;99.90;;;;;;5002492;28;20049;-64
2023/10/09 14:07:20;;;;;;;12.50;5.90;;;25.40;99.90;;;;;;5006451;28;20060;-64
2023/10/09 14:10:06;;;;;;;16.83;5.32;;;25.00;99.90;;;;;;5003214;28;20536;-64
2023/10/09 14:12:39;;;;;;;17.00;5.65;;;24.70;99.90;;;;;;4998600;28;20053;-64
2023/10/09 14:15:16;;;;;;;14.07;5.97;;;24.30;99.90;;;;;;4993824;28;20061;-65
2023/10/09 14:17:46;;;;;;;16.77;6.07;;;24.00;99.90;;;;;;5001809;28;20433;-65
2023/10/09 14:20:30;;;;;;;13.55;5.85;;;23.80;99.90;;;;;;4994679;28;20507;-65
2023/10/09 14:23:20;;;;;;;17.15;6.85;;;23.60;99.90;;;;;;4997747;28;20057;-64
2023/10/09 14:25:49;;;;;;;20.27;6.67;;;23.40;99.90;;;;;;4987731;28;20046;-68
2023/10/09 14:28:18;;;;;;;11.80;6.00;;;23.20;99.90;;;;;;4995519;28;20045;-67
2023/10/09 14:30:53;;;;;;;15.00;6.55;;;23.00;99.90;;;;;;4989438;28;20069;-65
2023/10/09 14:33:27;;;;;;;20.33;6.65;;;22.80;99.90;;;;;;4997693;28;20050;-67
2023/10/09 14:35:55;;;;;;;16.40;6.03;;;22.80;99.90;;;;;;5000234;28;20054;-65
2023/10/09 14:38:26;;;;;;;21.55;7.03;;;22.70;99.90;;;;;;4991042;28;20049;-65
2023/10/09 14:40:59;;;;;;;16.02;6.80;;;22.60;99.90;;;;;;5008211;28;20053;-64
2023/10/09 14:43:28;;;;;;;22.10;6.22;;;22.50;99.90;;;;;;4999388;28;20417;-67
2023/10/09 14:45:57;;;;;;;21.30;7.20;;;22.50;99.90;;;;;;4993975;28;20041;-65
2023/10/09 14:48:28;;;;;;;13.88;6.45;;;22.40;99.90;;;;;;5006116;28;20045;-65
2023/10/09 14:51:04;;;;;;;16.60;6.57;;;22.30;99.90;;;;;;5004136;28;20406;-64
2023/10/09 14:53:35;;;;;;;15.55;6.75;;;22.30;99.90;;;;;;4998858;28;20528;-64
2023/10/09 14:56:08;;;;;;;11.57;7.15;;;22.20;99.90;;;;;;5006258;28;20516;-61
2023/10/09 14:58:38;;;;;;;16.25;6.85;;;22.10;99.90;;;;;;5007649;28;20066;-62
2023/10/09 15:01:12;;;;;;;16.30;6.50;;;22.00;99.90;;;;;;5002710;28;20050;-61
2023/10/09 15:03:42;;;;;;;14.05;6.30;;;22.00;99.90;;;;;;5006069;28;20050;-62
2023/10/09 15:06:11;;;;;;;15.68;6.90;;;21.90;99.90;;;;;;5005876;28;20061;-62
2023/10/09 15:08:39;;;;;;;13.57;6.78;;;21.90;99.90;;;;;;5006349;28;20070;-64
2023/10/09 15:11:08;;;;;;;13.45;6.28;;;21.90;99.90;;;;;;5005316;28;20061;-65
2023/10/09 15:13:39;;;;;;;15.23;6.10;;;21.90;99.90;;;;;;4998939;28;20058;-66
2023/10/09 15:16:11;;;;;;;13.93;6.47;;;21.90;99.90;;;;;;5002008;28;20397;-64
2023/10/09 15:18:39;;;;;;;20.27;7.35;;;21.80;99.90;;;;;;5011974;28;20046;-63
2023/10/09 15:21:08;;;;;;;17.70;6.55;;;21.80;99.90;;;;;;5011470;28;20046;-65
2023/10/09 15:23:36;;;;;;;17.17;6.85;;;21.80;99.90;;;;;;5004163;28;20048;-64
2023/10/09 15:26:06;;;;;;;14.30;7.05;;;21.70;99.90;;;;;;5011105;28;20049;-64
2023/10/09 15:28:35;;;;;;;18.42;6.03;;;21.70;99.90;;;;;;5000869;28;20121;-65
2023/10/09 15:31:10;;;;;;;14.20;6.32;;;21.60;99.90;;;;;;4996772;28;20054;-65
2023/10/09 15:33:39;;;;;;;15.10;6.70;;;21.60;99.90;;;;;;5004959;28;20501;-66
2023/10/09 15:36:13;;;;;;;14.53;6.63;;;21.60;99.90;;;;;;5001070;28;20049;-62
2023/10/09 15:38:41;;;;;;;19.75;8.18;;;21.50;99.90;;;;;;5012231;28;20299;-62
2023/10/09 15:41:08;;;;;;;15.15;7.43;;;21.50;99.90;;;;;;5010565;28;20050;-62
2023/10/09 15:43:37;;;;;;;14.98;7.45;;;21.50;99.90;;;;;;5000490;28;21348;-63
2023/10/09 15:46:12;;;;;;;26.70;7.43;;;21.40;99.90;;;;;;5008243;28;20426;-62
2023/10/09 15:48:42;;;;;;;13.85;6.38;;;21.30;99.90;;;;;;5002501;28;20491;-65
2023/10/09 15:51:14;;;;;;;;;;;21.20;99.90;;;;;;5012672;28;20054;-64
2023/10/09 15:53:43;;;;;;;18.08;7.50;;;21.10;99.90;;;;;;5004157;28;19921;-65
2023/10/09 15:56:12;;;;;;;18.02;7.47;;;21.10;99.90;;;;;;4992964;28;20221;-64
2023/10/09 15:58:43;;;;;;;19.05;7.40;;;21.00;99.90;;;;;;5001503;28;20048;-65
2023/10/09 16:01:13;;;;;;;15.73;7.88;;;21.00;99.90;;;;;;5003708;28;20507;-65
2023/10/09 16:03:47;;;;;;;14.40;6.28;;;20.80;99.90;;;;;;4984734;28;20296;-65
2023/10/09 16:06:17;;;;;;;15.77;6.40;;;20.80;99.90;;;;;;4999132;28;20050;-64
2023/10/09 16:08:47;;;;;;;22.35;7.25;;;20.70;99.90;;;;;;5011230;28;20445;-64
2023/10/09 16:11:25;;;;;;;13.73;6.53;;;20.60;99.90;;;;;;5011200;28;20049;-65
2023/10/09 16:13:56;;;;;;;17.75;7.38;;;20.60;99.90;;;;;;5006137;28;20130;-66
2023/10/09 16:16:29;;;;;;;17.95;6.78;;;20.50;99.90;;;;;;4998509;28;20050;-64
2023/10/09 16:18:57;;;;;;;17.40;7.50;;;20.50;99.90;;;;;;4991838;28;20485;-65
2023/10/09 16:21:25;;;;;;;13.77;6.88;;;20.40;99.90;;;;;;4991543;28;20394;-64